sensor_id;sensor_type;location;lat;lon;timestamp;P1;durP1;ratioP1;P2;durP2;ratioP2
27889;SDS011;15238;49.082;9.102;2023-07-24T00:01:29;9.90;;;5.88;;
27889;SDS011;15238;49.082;9.102;2023-07-24T00:03:29;9.52;;;6.18;;
27889;SDS011;15238;49.082;9.102;2023-07-24T00:05:30;9.85;;;5.85;;
27889;SDS011;15238;49.082;9.102;2023-07-24T00:07:30;7.95;;;5.05;;
27889;SDS011;15238;49.082;9.102;2023-07-24T00:09:31;7.70;;;5.22;;
27889;SDS011;15238;49.082;9.102;2023-07-24T00:11:32;9.27;;;5.65;;
27889;SDS011;15238;49.082;9.102;2023-07-24T00:13:33;8.80;;;6.05;;
27889;SDS011;15238;49.082;9.102;2023-07-24T00:15:33;9.27;;;6.18;;
27889;SDS011;15238;49.082;9.102;2023-07-24T00:17:34;10.10;;;5.78;;
27889;SDS011;15238;49.082;9.102;2023-07-24T00:19:35;10.30;;;5.75;;
27889;SDS011;15238;49.082;9.102;2023-07-24T00:21:35;11.00;;;6.25;;
27889;SDS011;15238;49.082;9.102;2023-07-24T00:23:36;8.82;;;5.97;;
27889;SDS011;15238;49.082;9.102;2023-07-24T00:25:37;9.02;;;6.13;;
27889;SDS011;15238;49.082;9.102;2023-07-24T00:27:38;8.02;;;5.55;;
27889;SDS011;15238;49.082;9.102;2023-07-24T00:29:38;9.80;;;6.00;;
27889;SDS011;15238;49.082;9.102;2023-07-24T00:31:39;8.90;;;5.72;;
27889;SDS011;15238;49.082;9.102;2023-07-24T00:33:39;10.25;;;6.70;;
27889;SDS011;15238;49.082;9.102;2023-07-24T00:35:40;8.82;;;6.15;;
27889;SDS011;15238;49.082;9.102;2023-07-24T00:37:40;7.55;;;5.70;;
27889;SDS011;15238;49.082;9.102;2023-07-24T00:39:41;7.93;;;5.60;;
27889;SDS011;15238;49.082;9.102;2023-07-24T00:41:43;11.88;;;6.10;;
27889;SDS011;15238;49.082;9.102;2023-07-24T00:43:43;10.57;;;6.00;;
27889;SDS011;15238;49.082;9.102;2023-07-24T00:45:44;9.98;;;6.07;;
27889;SDS011;15238;49.082;9.102;2023-07-24T00:47:46;9.05;;;6.05;;
27889;SDS011;15238;49.082;9.102;2023-07-24T00:49:47;9.43;;;6.45;;
27889;SDS011;15238;49.082;9.102;2023-07-24T00:51:49;8.23;;;6.03;;
27889;SDS011;15238;49.082;9.102;2023-07-24T00:53:50;7.03;;;5.55;;
27889;SDS011;15238;49.082;9.102;2023-07-24T00:55:50;10.68;;;6.18;;
27889;SDS011;15238;49.082;9.102;2023-07-24T00:57:51;7.85;;;5.60;;
27889;SDS011;15238;49.082;9.102;2023-07-24T00:59:52;6.88;;;5.15;;
27889;SDS011;15238;49.082;9.102;2023-07-24T01:01:53;9.27;;;5.63;;
27889;SDS011;15238;49.082;9.102;2023-07-24T01:03:54;9.88;;;5.68;;
27889;SDS011;15238;49.082;9.102;2023-07-24T01:05:57;7.90;;;5.80;;
27889;SDS011;15238;49.082;9.102;2023-07-24T01:07:58;9.00;;;5.88;;
27889;SDS011;15238;49.082;9.102;2023-07-24T01:09:58;10.77;;;6.70;;
27889;SDS011;15238;49.082;9.102;2023-07-24T01:16:37;8.15;;;5.75;;
27889;SDS011;15238;49.082;9.102;2023-07-24T01:18:40;8.52;;;5.68;;
27889;SDS011;15238;49.082;9.102;2023-07-24T01:20:43;12.40;;;6.45;;
27889;SDS011;15238;49.082;9.102;2023-07-24T01:22:56;10.98;;;5.75;;
27889;SDS011;15238;49.082;9.102;2023-07-24T01:25:33;6.97;;;5.78;;
27889;SDS011;15238;49.082;9.102;2023-07-24T01:27:35;9.98;;;6.35;;
27889;SDS011;15238;49.082;9.102;2023-07-24T01:29:40;11.38;;;6.20;;
27889;SDS011;15238;49.082;9.102;2023-07-24T01:31:40;8.40;;;6.00;;
27889;SDS011;15238;49.082;9.102;2023-07-24T01:33:41;9.38;;;6.38;;
27889;SDS011;15238;49.082;9.102;2023-07-24T01:35:42;9.75;;;5.85;;
27889;SDS011;15238;49.082;9.102;2023-07-24T01:37:44;10.13;;;5.95;;
27889;SDS011;15238;49.082;9.102;2023-07-24T01:39:52;10.55;;;6.10;;
27889;SDS011;15238;49.082;9.102;2023-07-24T01:41:56;9.15;;;6.43;;
27889;SDS011;15238;49.082;9.102;2023-07-24T01:43:58;11.07;;;6.47;;
27889;SDS011;15238;49.082;9.102;2023-07-24T01:45:59;8.77;;;6.20;;
27889;SDS011;15238;49.082;9.102;2023-07-24T01:48:06;13.38;;;6.40;;
27889;SDS011;15238;49.082;9.102;2023-07-24T01:50:06;9.95;;;6.30;;
27889;SDS011;15238;49.082;9.102;2023-07-24T01:52:07;12.00;;;6.53;;
27889;SDS011;15238;49.082;9.102;2023-07-24T01:54:08;13.23;;;7.03;;
27889;SDS011;15238;49.082;9.102;2023-07-24T01:56:09;10.15;;;6.55;;
27889;SDS011;15238;49.082;9.102;2023-07-24T01:58:09;11.07;;;6.00;;
27889;SDS011;15238;49.082;9.102;2023-07-24T02:00:10;10.23;;;6.13;;
27889;SDS011;15238;49.082;9.102;2023-07-24T02:02:11;9.30;;;6.78;;
27889;SDS011;15238;49.082;9.102;2023-07-24T02:04:11;12.00;;;7.00;;
27889;SDS011;15238;49.082;9.102;2023-07-24T02:06:12;9.27;;;6.35;;
27889;SDS011;15238;49.082;9.102;2023-07-24T02:08:13;8.23;;;5.70;;
27889;SDS011;15238;49.082;9.102;2023-07-24T02:10:13;10.20;;;6.50;;
27889;SDS011;15238;49.082;9.102;2023-07-24T02:12:14;12.98;;;6.93;;
27889;SDS011;15238;49.082;9.102;2023-07-24T02:14:14;7.82;;;5.90;;
27889;SDS011;15238;49.082;9.102;2023-07-24T02:16:16;10.40;;;6.68;;
27889;SDS011;15238;49.082;9.102;2023-07-24T02:18:17;9.85;;;6.57;;
27889;SDS011;15238;49.082;9.102;2023-07-24T02:20:17;10.80;;;6.70;;
27889;SDS011;15238;49.082;9.102;2023-07-24T02:22:18;10.40;;;6.97;;
27889;SDS011;15238;49.082;9.102;2023-07-24T02:24:18;9.65;;;6.50;;
27889;SDS011;15238;49.082;9.102;2023-07-24T02:26:19;14.20;;;7.18;;
27889;SDS011;15238;49.082;9.102;2023-07-24T02:28:20;10.98;;;6.70;;
27889;SDS011;15238;49.082;9.102;2023-07-24T02:30:20;12.48;;;6.57;;
27889;SDS011;15238;49.082;9.102;2023-07-24T02:32:21;11.48;;;6.75;;
27889;SDS011;15238;49.082;9.102;2023-07-24T02:34:22;9.48;;;6.40;;
27889;SDS011;15238;49.082;9.102;2023-07-24T02:36:25;8.70;;;6.40;;
27889;SDS011;15238;49.082;9.102;2023-07-24T02:38:26;11.50;;;6.40;;
27889;SDS011;15238;49.082;9.102;2023-07-24T02:40:27;10.43;;;6.20;;
27889;SDS011;15238;49.082;9.102;2023-07-24T02:42:27;11.05;;;6.95;;
27889;SDS011;15238;49.082;9.102;2023-07-24T02:44:28;11.45;;;6.28;;
27889;SDS011;15238;49.082;9.102;2023-07-24T02:46:28;10.57;;;6.63;;
27889;SDS011;15238;49.082;9.102;2023-07-24T02:48:30;11.35;;;7.00;;
27889;SDS011;15238;49.082;9.102;2023-07-24T02:50:32;11.10;;;6.40;;
27889;SDS011;15238;49.082;9.102;2023-07-24T02:52:33;12.90;;;6.82;;
27889;SDS011;15238;49.082;9.102;2023-07-24T02:54:33;8.30;;;6.38;;
27889;SDS011;15238;49.082;9.102;2023-07-24T02:56:34;10.63;;;6.20;;
27889;SDS011;15238;49.082;9.102;2023-07-24T02:58:35;11.05;;;6.57;;
27889;SDS011;15238;49.082;9.102;2023-07-24T03:00:36;11.10;;;6.32;;
27889;SDS011;15238;49.082;9.102;2023-07-24T03:02:37;13.38;;;7.40;;
27889;SDS011;15238;49.082;9.102;2023-07-24T03:04:38;11.18;;;7.05;;
27889;SDS011;15238;49.082;9.102;2023-07-24T03:06:39;14.50;;;6.82;;
27889;SDS011;15238;49.082;9.102;2023-07-24T03:08:40;9.43;;;6.82;;
27889;SDS011;15238;49.082;9.102;2023-07-24T03:10:41;13.57;;;6.72;;
27889;SDS011;15238;49.082;9.102;2023-07-24T03:12:41;13.52;;;6.80;;
27889;SDS011;15238;49.082;9.102;2023-07-24T03:14:42;8.73;;;6.53;;
27889;SDS011;15238;49.082;9.102;2023-07-24T03:16:42;9.90;;;7.07;;
27889;SDS011;15238;49.082;9.102;2023-07-24T03:18:43;8.32;;;6.18;;
27889;SDS011;15238;49.082;9.102;2023-07-24T03:20:43;12.32;;;6.90;;
27889;SDS011;15238;49.082;9.102;2023-07-24T03:22:44;9.90;;;6.25;;
27889;SDS011;15238;49.082;9.102;2023-07-24T03:24:45;13.50;;;6.82;;
27889;SDS011;15238;49.082;9.102;2023-07-24T03:26:45;10.23;;;6.40;;
27889;SDS011;15238;49.082;9.102;2023-07-24T03:28:46;9.48;;;6.80;;
27889;SDS011;15238;49.082;9.102;2023-07-24T03:30:46;10.93;;;6.20;;
27889;SDS011;15238;49.082;9.102;2023-07-24T03:32:47;9.70;;;6.72;;
27889;SDS011;15238;49.082;9.102;2023-07-24T03:34:47;9.88;;;6.30;;
27889;SDS011;15238;49.082;9.102;2023-07-24T03:36:48;9.95;;;6.93;;
27889;SDS011;15238;49.082;9.102;2023-07-24T03:38:49;11.25;;;6.55;;
27889;SDS011;15238;49.082;9.102;2023-07-24T03:40:49;10.27;;;6.65;;
27889;SDS011;15238;49.082;9.102;2023-07-24T03:42:50;11.23;;;6.68;;
27889;SDS011;15238;49.082;9.102;2023-07-24T03:44:50;9.88;;;6.50;;
27889;SDS011;15238;49.082;9.102;2023-07-24T03:46:51;16.60;;;7.88;;
27889;SDS011;15238;49.082;9.102;2023-07-24T03:48:51;11.52;;;6.30;;
27889;SDS011;15238;49.082;9.102;2023-07-24T03:50:57;11.13;;;6.70;;
27889;SDS011;15238;49.082;9.102;2023-07-24T03:52:59;12.32;;;6.93;;
27889;SDS011;15238;49.082;9.102;2023-07-24T03:55:00;10.50;;;7.18;;
27889;SDS011;15238;49.082;9.102;2023-07-24T03:57:01;13.13;;;7.00;;
27889;SDS011;15238;49.082;9.102;2023-07-24T03:59:02;11.00;;;6.80;;
27889;SDS011;15238;49.082;9.102;2023-07-24T04:01:02;13.02;;;7.75;;
27889;SDS011;15238;49.082;9.102;2023-07-24T04:03:03;9.25;;;6.65;;
27889;SDS011;15238;49.082;9.102;2023-07-24T04:05:03;13.77;;;7.05;;
27889;SDS011;15238;49.082;9.102;2023-07-24T04:07:04;10.68;;;6.20;;
27889;SDS011;15238;49.082;9.102;2023-07-24T04:09:05;13.90;;;7.53;;
27889;SDS011;15238;49.082;9.102;2023-07-24T04:11:06;11.20;;;7.43;;
27889;SDS011;15238;49.082;9.102;2023-07-24T04:13:06;9.95;;;7.15;;
27889;SDS011;15238;49.082;9.102;2023-07-24T04:15:07;10.63;;;6.78;;
27889;SDS011;15238;49.082;9.102;2023-07-24T04:17:07;10.93;;;6.90;;
27889;SDS011;15238;49.082;9.102;2023-07-24T04:19:08;12.43;;;7.10;;
27889;SDS011;15238;49.082;9.102;2023-07-24T04:21:09;12.45;;;7.47;;
27889;SDS011;15238;49.082;9.102;2023-07-24T04:23:09;11.98;;;6.65;;
27889;SDS011;15238;49.082;9.102;2023-07-24T04:25:10;12.57;;;7.00;;
27889;SDS011;15238;49.082;9.102;2023-07-24T04:27:10;14.32;;;6.38;;
27889;SDS011;15238;49.082;9.102;2023-07-24T04:29:11;10.90;;;6.43;;
27889;SDS011;15238;49.082;9.102;2023-07-24T04:31:11;10.55;;;6.53;;
27889;SDS011;15238;49.082;9.102;2023-07-24T04:33:12;11.82;;;7.13;;
27889;SDS011;15238;49.082;9.102;2023-07-24T04:35:12;11.85;;;6.93;;
27889;SDS011;15238;49.082;9.102;2023-07-24T04:37:13;9.40;;;6.20;;
27889;SDS011;15238;49.082;9.102;2023-07-24T04:39:13;11.50;;;6.47;;
27889;SDS011;15238;49.082;9.102;2023-07-24T04:41:14;10.30;;;6.00;;
27889;SDS011;15238;49.082;9.102;2023-07-24T04:43:14;10.10;;;5.90;;
27889;SDS011;15238;49.082;9.102;2023-07-24T04:45:15;11.18;;;6.80;;
27889;SDS011;15238;49.082;9.102;2023-07-24T04:47:15;9.50;;;6.22;;
27889;SDS011;15238;49.082;9.102;2023-07-24T04:49:16;10.30;;;6.38;;
27889;SDS011;15238;49.082;9.102;2023-07-24T04:51:16;11.45;;;6.68;;
27889;SDS011;15238;49.082;9.102;2023-07-24T04:53:18;12.30;;;6.13;;
27889;SDS011;15238;49.082;9.102;2023-07-24T04:55:19;9.75;;;6.65;;
27889;SDS011;15238;49.082;9.102;2023-07-24T04:57:20;10.23;;;7.15;;
27889;SDS011;15238;49.082;9.102;2023-07-24T04:59:21;9.68;;;6.47;;
27889;SDS011;15238;49.082;9.102;2023-07-24T05:01:21;10.73;;;6.57;;
27889;SDS011;15238;49.082;9.102;2023-07-24T05:03:22;9.50;;;5.75;;
27889;SDS011;15238;49.082;9.102;2023-07-24T05:05:23;10.85;;;6.60;;
27889;SDS011;15238;49.082;9.102;2023-07-24T05:07:23;8.73;;;5.90;;
27889;SDS011;15238;49.082;9.102;2023-07-24T05:09:24;8.75;;;6.18;;
27889;SDS011;15238;49.082;9.102;2023-07-24T05:11:24;12.23;;;6.53;;
27889;SDS011;15238;49.082;9.102;2023-07-24T05:13:25;10.45;;;6.57;;
27889;SDS011;15238;49.082;9.102;2023-07-24T05:15:26;10.15;;;6.22;;
27889;SDS011;15238;49.082;9.102;2023-07-24T05:17:26;12.02;;;5.88;;
27889;SDS011;15238;49.082;9.102;2023-07-24T05:19:27;8.45;;;6.53;;
27889;SDS011;15238;49.082;9.102;2023-07-24T05:21:27;9.43;;;6.32;;
27889;SDS011;15238;49.082;9.102;2023-07-24T05:23:28;11.15;;;6.10;;
27889;SDS011;15238;49.082;9.102;2023-07-24T05:25:29;9.93;;;6.22;;
27889;SDS011;15238;49.082;9.102;2023-07-24T05:27:29;9.05;;;6.28;;
27889;SDS011;15238;49.082;9.102;2023-07-24T05:29:30;11.18;;;6.53;;
27889;SDS011;15238;49.082;9.102;2023-07-24T05:31:30;10.30;;;6.07;;
27889;SDS011;15238;49.082;9.102;2023-07-24T05:33:31;9.68;;;6.20;;
27889;SDS011;15238;49.082;9.102;2023-07-24T05:35:32;11.68;;;6.28;;
27889;SDS011;15238;49.082;9.102;2023-07-24T05:37:32;9.65;;;6.43;;
27889;SDS011;15238;49.082;9.102;2023-07-24T05:39:33;8.52;;;5.95;;
27889;SDS011;15238;49.082;9.102;2023-07-24T05:41:33;10.25;;;6.47;;
27889;SDS011;15238;49.082;9.102;2023-07-24T05:43:34;8.65;;;6.05;;
27889;SDS011;15238;49.082;9.102;2023-07-24T05:45:34;9.43;;;6.40;;
27889;SDS011;15238;49.082;9.102;2023-07-24T05:47:35;12.85;;;6.82;;
27889;SDS011;15238;49.082;9.102;2023-07-24T05:49:35;12.52;;;6.38;;
27889;SDS011;15238;49.082;9.102;2023-07-24T05:51:36;15.18;;;6.72;;
27889;SDS011;15238;49.082;9.102;2023-07-24T05:53:36;9.68;;;6.40;;
27889;SDS011;15238;49.082;9.102;2023-07-24T05:55:37;10.63;;;6.20;;
27889;SDS011;15238;49.082;9.102;2023-07-24T05:57:37;11.07;;;5.95;;
27889;SDS011;15238;49.082;9.102;2023-07-24T05:59:38;13.45;;;7.00;;
27889;SDS011;15238;49.082;9.102;2023-07-24T06:01:38;9.23;;;6.30;;
27889;SDS011;15238;49.082;9.102;2023-07-24T06:03:39;8.90;;;6.07;;
27889;SDS011;15238;49.082;9.102;2023-07-24T06:05:40;12.23;;;6.55;;
27889;SDS011;15238;49.082;9.102;2023-07-24T06:07:40;10.98;;;7.15;;
27889;SDS011;15238;49.082;9.102;2023-07-24T06:09:41;11.20;;;6.93;;
27889;SDS011;15238;49.082;9.102;2023-07-24T06:11:41;13.65;;;6.25;;
27889;SDS011;15238;49.082;9.102;2023-07-24T06:13:42;9.40;;;6.25;;
27889;SDS011;15238;49.082;9.102;2023-07-24T06:15:43;10.48;;;6.97;;
27889;SDS011;15238;49.082;9.102;2023-07-24T06:17:44;11.35;;;6.90;;
27889;SDS011;15238;49.082;9.102;2023-07-24T06:19:44;12.05;;;6.68;;
27889;SDS011;15238;49.082;9.102;2023-07-24T06:21:45;12.45;;;6.72;;
27889;SDS011;15238;49.082;9.102;2023-07-24T06:23:46;9.23;;;6.15;;
27889;SDS011;15238;49.082;9.102;2023-07-24T06:25:46;12.70;;;6.35;;
27889;SDS011;15238;49.082;9.102;2023-07-24T06:27:47;9.98;;;6.15;;
27889;SDS011;15238;49.082;9.102;2023-07-24T06:29:47;11.25;;;6.32;;
27889;SDS011;15238;49.082;9.102;2023-07-24T06:31:48;11.77;;;7.05;;
27889;SDS011;15238;49.082;9.102;2023-07-24T06:33:49;9.10;;;6.78;;
27889;SDS011;15238;49.082;9.102;2023-07-24T06:35:50;13.43;;;7.68;;
27889;SDS011;15238;49.082;9.102;2023-07-24T06:37:51;14.55;;;7.30;;
27889;SDS011;15238;49.082;9.102;2023-07-24T06:39:51;13.43;;;7.03;;
27889;SDS011;15238;49.082;9.102;2023-07-24T06:41:52;11.48;;;6.70;;
27889;SDS011;15238;49.082;9.102;2023-07-24T06:43:53;11.43;;;6.78;;
27889;SDS011;15238;49.082;9.102;2023-07-24T06:45:53;10.73;;;6.45;;
27889;SDS011;15238;49.082;9.102;2023-07-24T06:47:54;12.68;;;7.35;;
27889;SDS011;15238;49.082;9.102;2023-07-24T06:49:54;12.30;;;7.43;;
27889;SDS011;15238;49.082;9.102;2023-07-24T06:51:55;10.15;;;6.88;;
27889;SDS011;15238;49.082;9.102;2023-07-24T06:53:55;11.25;;;7.13;;
27889;SDS011;15238;49.082;9.102;2023-07-24T06:55:56;10.55;;;6.90;;
27889;SDS011;15238;49.082;9.102;2023-07-24T06:57:56;10.63;;;6.85;;
27889;SDS011;15238;49.082;9.102;2023-07-24T06:59:57;14.95;;;6.95;;
27889;SDS011;15238;49.082;9.102;2023-07-24T07:01:57;10.25;;;7.45;;
27889;SDS011;15238;49.082;9.102;2023-07-24T07:03:58;10.52;;;7.18;;
27889;SDS011;15238;49.082;9.102;2023-07-24T07:05:59;10.10;;;6.88;;
27889;SDS011;15238;49.082;9.102;2023-07-24T07:07:59;11.93;;;6.82;;
27889;SDS011;15238;49.082;9.102;2023-07-24T07:10:00;13.48;;;7.20;;
27889;SDS011;15238;49.082;9.102;2023-07-24T07:12:01;9.75;;;7.07;;
27889;SDS011;15238;49.082;9.102;2023-07-24T07:14:01;15.85;;;8.07;;
27889;SDS011;15238;49.082;9.102;2023-07-24T07:16:02;11.90;;;7.50;;
27889;SDS011;15238;49.082;9.102;2023-07-24T07:18:02;14.30;;;7.60;;
27889;SDS011;15238;49.082;9.102;2023-07-24T07:20:03;13.35;;;7.72;;
27889;SDS011;15238;49.082;9.102;2023-07-24T07:22:04;12.98;;;7.18;;
27889;SDS011;15238;49.082;9.102;2023-07-24T07:24:05;12.38;;;7.80;;
27889;SDS011;15238;49.082;9.102;2023-07-24T07:26:05;10.65;;;7.18;;
27889;SDS011;15238;49.082;9.102;2023-07-24T07:28:06;12.05;;;7.25;;
27889;SDS011;15238;49.082;9.102;2023-07-24T07:30:06;12.43;;;7.45;;
27889;SDS011;15238;49.082;9.102;2023-07-24T07:32:07;12.32;;;6.95;;
27889;SDS011;15238;49.082;9.102;2023-07-24T07:34:08;11.77;;;7.22;;
27889;SDS011;15238;49.082;9.102;2023-07-24T07:36:09;14.90;;;7.78;;
27889;SDS011;15238;49.082;9.102;2023-07-24T07:38:09;10.50;;;6.93;;
27889;SDS011;15238;49.082;9.102;2023-07-24T07:40:10;10.73;;;7.68;;
27889;SDS011;15238;49.082;9.102;2023-07-24T07:42:11;11.63;;;6.90;;
27889;SDS011;15238;49.082;9.102;2023-07-24T07:44:11;11.60;;;7.38;;
27889;SDS011;15238;49.082;9.102;2023-07-24T07:46:12;10.68;;;6.78;;
27889;SDS011;15238;49.082;9.102;2023-07-24T07:48:13;12.80;;;7.22;;
27889;SDS011;15238;49.082;9.102;2023-07-24T07:50:13;12.65;;;7.15;;
27889;SDS011;15238;49.082;9.102;2023-07-24T07:52:14;9.75;;;7.00;;
27889;SDS011;15238;49.082;9.102;2023-07-24T07:54:17;10.05;;;7.03;;
27889;SDS011;15238;49.082;9.102;2023-07-24T07:56:18;10.65;;;7.00;;
27889;SDS011;15238;49.082;9.102;2023-07-24T07:58:19;12.57;;;7.03;;
27889;SDS011;15238;49.082;9.102;2023-07-24T08:00:19;12.55;;;7.50;;
27889;SDS011;15238;49.082;9.102;2023-07-24T08:02:20;13.10;;;6.70;;
27889;SDS011;15238;49.082;9.102;2023-07-24T08:04:20;20.60;;;8.32;;
27889;SDS011;15238;49.082;9.102;2023-07-24T08:06:21;27.23;;;9.27;;
27889;SDS011;15238;49.082;9.102;2023-07-24T08:08:21;18.73;;;8.88;;
27889;SDS011;15238;49.082;9.102;2023-07-24T08:10:22;17.23;;;7.20;;
27889;SDS011;15238;49.082;9.102;2023-07-24T08:12:23;17.33;;;8.02;;
27889;SDS011;15238;49.082;9.102;2023-07-24T08:14:23;16.05;;;7.63;;
27889;SDS011;15238;49.082;9.102;2023-07-24T08:16:24;14.90;;;7.60;;
27889;SDS011;15238;49.082;9.102;2023-07-24T08:18:27;14.55;;;7.03;;
27889;SDS011;15238;49.082;9.102;2023-07-24T08:20:28;14.60;;;7.80;;
27889;SDS011;15238;49.082;9.102;2023-07-24T08:22:28;20.90;;;8.13;;
27889;SDS011;15238;49.082;9.102;2023-07-24T08:24:29;13.45;;;7.57;;
27889;SDS011;15238;49.082;9.102;2023-07-24T08:26:29;15.75;;;7.78;;
27889;SDS011;15238;49.082;9.102;2023-07-24T08:28:30;13.05;;;7.50;;
27889;SDS011;15238;49.082;9.102;2023-07-24T08:30:32;12.13;;;6.88;;
27889;SDS011;15238;49.082;9.102;2023-07-24T08:32:34;10.23;;;7.40;;
27889;SDS011;15238;49.082;9.102;2023-07-24T08:34:34;14.32;;;7.45;;
27889;SDS011;15238;49.082;9.102;2023-07-24T08:36:35;14.63;;;7.40;;
27889;SDS011;15238;49.082;9.102;2023-07-24T08:38:37;11.50;;;7.47;;
27889;SDS011;15238;49.082;9.102;2023-07-24T08:40:37;12.52;;;7.47;;
27889;SDS011;15238;49.082;9.102;2023-07-24T08:42:39;14.50;;;7.65;;
27889;SDS011;15238;49.082;9.102;2023-07-24T08:44:41;15.13;;;7.75;;
27889;SDS011;15238;49.082;9.102;2023-07-24T08:46:42;12.57;;;7.88;;
27889;SDS011;15238;49.082;9.102;2023-07-24T08:48:45;12.80;;;7.75;;
27889;SDS011;15238;49.082;9.102;2023-07-24T08:50:46;15.88;;;7.68;;
27889;SDS011;15238;49.082;9.102;2023-07-24T08:52:48;11.38;;;7.45;;
27889;SDS011;15238;49.082;9.102;2023-07-24T08:54:49;11.07;;;7.32;;
27889;SDS011;15238;49.082;9.102;2023-07-24T08:56:50;12.00;;;7.40;;
27889;SDS011;15238;49.082;9.102;2023-07-24T08:58:52;13.48;;;8.05;;
27889;SDS011;15238;49.082;9.102;2023-07-24T09:00:52;16.70;;;8.25;;
27889;SDS011;15238;49.082;9.102;2023-07-24T09:02:53;12.38;;;7.07;;
27889;SDS011;15238;49.082;9.102;2023-07-24T09:04:53;14.45;;;7.80;;
27889;SDS011;15238;49.082;9.102;2023-07-24T09:06:55;15.70;;;8.80;;
27889;SDS011;15238;49.082;9.102;2023-07-24T09:08:58;11.30;;;7.90;;
27889;SDS011;15238;49.082;9.102;2023-07-24T09:10:59;17.98;;;8.20;;
27889;SDS011;15238;49.082;9.102;2023-07-24T09:13:00;12.30;;;7.95;;
27889;SDS011;15238;49.082;9.102;2023-07-24T09:15:04;15.98;;;8.20;;
27889;SDS011;15238;49.082;9.102;2023-07-24T09:17:06;13.95;;;8.20;;
27889;SDS011;15238;49.082;9.102;2023-07-24T09:19:17;13.95;;;8.30;;
27889;SDS011;15238;49.082;9.102;2023-07-24T09:21:31;12.15;;;7.30;;
27889;SDS011;15238;49.082;9.102;2023-07-24T09:23:32;11.80;;;8.05;;
27889;SDS011;15238;49.082;9.102;2023-07-24T09:25:33;13.15;;;8.40;;
27889;SDS011;15238;49.082;9.102;2023-07-24T09:27:34;17.20;;;8.20;;
27889;SDS011;15238;49.082;9.102;2023-07-24T09:29:35;13.35;;;8.52;;
27889;SDS011;15238;49.082;9.102;2023-07-24T09:31:36;16.65;;;8.93;;
27889;SDS011;15238;49.082;9.102;2023-07-24T09:33:39;11.77;;;7.80;;
27889;SDS011;15238;49.082;9.102;2023-07-24T09:35:40;14.35;;;9.23;;
27889;SDS011;15238;49.082;9.102;2023-07-24T09:37:41;13.35;;;8.88;;
27889;SDS011;15238;49.082;9.102;2023-07-24T09:39:41;15.07;;;9.32;;
27889;SDS011;15238;49.082;9.102;2023-07-24T09:41:42;18.05;;;8.85;;
27889;SDS011;15238;49.082;9.102;2023-07-24T09:43:43;14.07;;;8.85;;
27889;SDS011;15238;49.082;9.102;2023-07-24T09:45:43;11.07;;;8.43;;
27889;SDS011;15238;49.082;9.102;2023-07-24T09:47:47;11.30;;;8.18;;
27889;SDS011;15238;49.082;9.102;2023-07-24T09:49:48;15.55;;;9.13;;
27889;SDS011;15238;49.082;9.102;2023-07-24T09:51:51;11.85;;;8.50;;
27889;SDS011;15238;49.082;9.102;2023-07-24T09:54:09;13.43;;;8.20;;
27889;SDS011;15238;49.082;9.102;2023-07-24T09:58:15;15.68;;;7.97;;
27889;SDS011;15238;49.082;9.102;2023-07-24T10:00:17;15.07;;;8.27;;
27889;SDS011;15238;49.082;9.102;2023-07-24T10:02:18;14.25;;;8.50;;
27889;SDS011;15238;49.082;9.102;2023-07-24T10:04:19;14.88;;;8.25;;
27889;SDS011;15238;49.082;9.102;2023-07-24T10:06:20;11.25;;;7.82;;
27889;SDS011;15238;49.082;9.102;2023-07-24T10:08:21;11.70;;;7.82;;
27889;SDS011;15238;49.082;9.102;2023-07-24T10:10:23;12.98;;;8.48;;
27889;SDS011;15238;49.082;9.102;2023-07-24T10:12:25;9.80;;;7.68;;
27889;SDS011;15238;49.082;9.102;2023-07-24T10:14:28;11.07;;;8.27;;
27889;SDS011;15238;49.082;9.102;2023-07-24T10:16:30;10.48;;;7.25;;
27889;SDS011;15238;49.082;9.102;2023-07-24T10:18:30;11.30;;;7.82;;
27889;SDS011;15238;49.082;9.102;2023-07-24T10:20:34;9.93;;;7.40;;
27889;SDS011;15238;49.082;9.102;2023-07-24T10:22:42;11.70;;;7.20;;
27889;SDS011;15238;49.082;9.102;2023-07-24T10:24:43;17.27;;;8.02;;
27889;SDS011;15238;49.082;9.102;2023-07-24T10:26:44;16.95;;;8.05;;
27889;SDS011;15238;49.082;9.102;2023-07-24T10:28:46;12.88;;;7.88;;
27889;SDS011;15238;49.082;9.102;2023-07-24T10:30:54;10.80;;;7.82;;
27889;SDS011;15238;49.082;9.102;2023-07-24T10:33:03;11.23;;;8.27;;
27889;SDS011;15238;49.082;9.102;2023-07-24T10:35:11;11.75;;;7.70;;
27889;SDS011;15238;49.082;9.102;2023-07-24T10:37:11;12.95;;;8.00;;
27889;SDS011;15238;49.082;9.102;2023-07-24T10:39:13;13.38;;;7.78;;
27889;SDS011;15238;49.082;9.102;2023-07-24T10:41:15;15.00;;;8.68;;
27889;SDS011;15238;49.082;9.102;2023-07-24T10:43:18;11.35;;;8.02;;
27889;SDS011;15238;49.082;9.102;2023-07-24T10:45:20;14.32;;;7.85;;
27889;SDS011;15238;49.082;9.102;2023-07-24T10:47:21;13.75;;;8.75;;
27889;SDS011;15238;49.082;9.102;2023-07-24T10:49:21;15.60;;;8.55;;
27889;SDS011;15238;49.082;9.102;2023-07-24T10:51:22;16.13;;;8.75;;
27889;SDS011;15238;49.082;9.102;2023-07-24T10:53:23;13.65;;;8.68;;
27889;SDS011;15238;49.082;9.102;2023-07-24T10:55:23;16.15;;;9.32;;
27889;SDS011;15238;49.082;9.102;2023-07-24T10:57:25;12.73;;;9.13;;
27889;SDS011;15238;49.082;9.102;2023-07-24T10:59:39;12.65;;;8.07;;
27889;SDS011;15238;49.082;9.102;2023-07-24T11:01:40;12.15;;;8.48;;
27889;SDS011;15238;49.082;9.102;2023-07-24T11:03:41;13.77;;;8.73;;
27889;SDS011;15238;49.082;9.102;2023-07-24T11:05:43;16.30;;;8.38;;
27889;SDS011;15238;49.082;9.102;2023-07-24T11:07:45;12.30;;;8.07;;
27889;SDS011;15238;49.082;9.102;2023-07-24T11:09:45;12.63;;;8.00;;
27889;SDS011;15238;49.082;9.102;2023-07-24T11:11:46;13.85;;;7.95;;
27889;SDS011;15238;49.082;9.102;2023-07-24T11:13:47;10.85;;;7.60;;
27889;SDS011;15238;49.082;9.102;2023-07-24T11:15:47;12.45;;;7.18;;
27889;SDS011;15238;49.082;9.102;2023-07-24T11:17:49;12.10;;;7.65;;
27889;SDS011;15238;49.082;9.102;2023-07-24T11:19:50;9.80;;;6.95;;
27889;SDS011;15238;49.082;9.102;2023-07-24T11:21:50;10.18;;;6.63;;
27889;SDS011;15238;49.082;9.102;2023-07-24T11:23:52;10.57;;;6.55;;
27889;SDS011;15238;49.082;9.102;2023-07-24T11:25:54;9.60;;;7.32;;
27889;SDS011;15238;49.082;9.102;2023-07-24T11:27:54;10.73;;;6.75;;
27889;SDS011;15238;49.082;9.102;2023-07-24T11:29:55;13.48;;;6.88;;
27889;SDS011;15238;49.082;9.102;2023-07-24T11:31:55;10.02;;;6.50;;
27889;SDS011;15238;49.082;9.102;2023-07-24T11:33:56;10.13;;;7.20;;
27889;SDS011;15238;49.082;9.102;2023-07-24T11:35:57;8.18;;;6.47;;
27889;SDS011;15238;49.082;9.102;2023-07-24T11:37:59;9.48;;;6.53;;
27889;SDS011;15238;49.082;9.102;2023-07-24T11:40:01;7.97;;;5.78;;
27889;SDS011;15238;49.082;9.102;2023-07-24T11:42:04;9.48;;;6.32;;
27889;SDS011;15238;49.082;9.102;2023-07-24T11:44:05;9.65;;;5.90;;
27889;SDS011;15238;49.082;9.102;2023-07-24T11:46:06;11.15;;;5.88;;
27889;SDS011;15238;49.082;9.102;2023-07-24T11:48:09;9.48;;;6.22;;
27889;SDS011;15238;49.082;9.102;2023-07-24T11:50:11;9.73;;;5.90;;
27889;SDS011;15238;49.082;9.102;2023-07-24T11:52:12;7.85;;;6.25;;
27889;SDS011;15238;49.082;9.102;2023-07-24T11:54:12;10.07;;;6.82;;
27889;SDS011;15238;49.082;9.102;2023-07-24T11:56:14;13.10;;;6.65;;
27889;SDS011;15238;49.082;9.102;2023-07-24T11:58:16;9.18;;;6.10;;
27889;SDS011;15238;49.082;9.102;2023-07-24T12:00:18;9.25;;;6.05;;
27889;SDS011;15238;49.082;9.102;2023-07-24T12:02:20;8.57;;;5.93;;
27889;SDS011;15238;49.082;9.102;2023-07-24T12:04:21;11.80;;;5.97;;
27889;SDS011;15238;49.082;9.102;2023-07-24T12:06:21;13.82;;;5.38;;
27889;SDS011;15238;49.082;9.102;2023-07-24T12:08:30;7.72;;;5.50;;
27889;SDS011;15238;49.082;9.102;2023-07-24T12:10:35;7.88;;;5.50;;